Titonka, IA

12:03 PM CDT on October 02, 2014 (GMT -0500)
Mason City Municipal | Change Station
CLOSE
Current Station
Airport
Location: Mason City,
Elevation: 1214 ft
Nearby Weather Stations

Elev 1214 ft 43.16 °N, 93.33 °W | Updated 24 minutes ago

Overcast
Overcast
63 °F
Feels Like 63 °F
N
6
Wind Variable Wind from NNW

Today
High -- | Low -- °F
--% Chance of Precip.
Yesterday
High -- | Low -- °F
Precip. -- in
7:14 AM 6:55 PM
First Quarter, 60% visible
Pressure 29.81 in
Visibility 1.8 miles
Clouds Few 500 ft
Overcast 1100 ft
Dew Point 62 °F
Humidity 97%
Rainfall 0.10 in
Snow Depth Not available.
UV 2 out of 12
Pollen .40 out of 12
Air Quality Not available.
Flu Activity Not available.
SPECI KMCW 021639Z AUTO 33005KT 1 3/4SM -RA BR FEW005 OVC011 17/17 A2981 RMK AO2 RAB25 P0001 T01720167

More Conditions Fewer Conditions

Pressure 29.81 in
Visibility 1.8 miles
Clouds Few 500 ft
Overcast 1100 ft
Dew Point 62 °F
Humidity 97%
Rainfall 0.10 in
Snow Depth Not available.
UV 2 out of 12
Pollen .40 out of 12
Air Quality Not available.
Flu Activity Not available.
SPECI KMCW 021639Z AUTO 33005KT 1 3/4SM -RA BR FEW005 OVC011 17/17 A2981 RMK AO2 RAB25 P0001 T01720167

More Conditions Fewer Conditions

10-Day Weather Forecast

Almanac

Astronomy

Oct. 02, 2014 Rise Set
Actual Time 7:14 AM CDT 6:55 PM CDT
Civil Twilight 6:46 AM CDT 7:23 PM CDT
Nautical Twilight 6:13 AM CDT 7:56 PM CDT
Astronomical Twilight 5:39 AM CDT 8:30 PM CDT
Moon 3:10 PM CDT 12:23 AM CDT
Length of Visible Light 12h 37m
Length of Day
11h 40m
Tomorrow will be 2m 55s shorter.
First Quarter, 60% of the Moon is Illuminated
Today
First Quarter
Oct 8
Full
Oct 15
Last Quarter
Oct 23
New
Oct 30
First Quarter

Today's Extremes

State Highs State Lows

Community

WunderPhotos

Upload Photos

1,758,298 photos uploaded!

Nearby

Snow Depth

Station Depth Elevation
No new snow has been reported.

Earthquake Activity

City Distance Mag. Time & Date
No recent earthquake activity has been reported nearby.
Minimum magnitude displayed is 2.5.

Coastal Water Temperatures

Place Temperature
No Stations Reporting

Nearby Weather Stations